sensor_id;sensor_type;location;lat;lon;timestamp;pressure;altitude;pressure_sealevel;temperature;humidity
59315;BME280;46521;50.160;20.802;2024-02-21T00:01:54;100320.02;;;4.81;85.25
59315;BME280;46521;50.160;20.802;2024-02-21T00:11:56;100317.63;;;4.78;84.83
59315;BME280;46521;50.160;20.802;2024-02-21T00:21:57;100316.17;;;4.74;84.58
59315;BME280;46521;50.160;20.802;2024-02-21T00:31:59;100318.09;;;4.72;84.42
59315;BME280;46521;50.160;20.802;2024-02-21T00:42:01;100314.23;;;4.65;83.90
59315;BME280;46521;50.160;20.802;2024-02-21T00:52:02;100310.64;;;4.55;83.82
59315;BME280;46521;50.160;20.802;2024-02-21T01:02:04;100311.09;;;4.48;83.64
59315;BME280;46521;50.160;20.802;2024-02-21T01:12:05;100303.95;;;4.50;83.48
59315;BME280;46521;50.160;20.802;2024-02-21T01:22:08;100296.88;;;4.40;83.17
59315;BME280;46521;50.160;20.802;2024-02-21T01:32:10;100293.38;;;4.28;82.95
59315;BME280;46521;50.160;20.802;2024-02-21T01:42:11;100287.95;;;4.18;83.00
59315;BME280;46521;50.160;20.802;2024-02-21T01:52:15;100294.71;;;4.09;82.75
59315;BME280;46521;50.160;20.802;2024-02-21T02:02:17;100292.80;;;4.11;82.86
59315;BME280;46521;50.160;20.802;2024-02-21T02:12:19;100285.67;;;4.13;82.44
59315;BME280;46521;50.160;20.802;2024-02-21T02:22:28;100271.42;;;4.18;82.38
59315;BME280;46521;50.160;20.802;2024-02-21T02:32:29;100273.98;;;4.06;82.05
59315;BME280;46521;50.160;20.802;2024-02-21T02:42:31;100267.02;;;3.94;82.54
59315;BME280;46521;50.160;20.802;2024-02-21T02:52:32;100268.17;;;3.90;82.77
59315;BME280;46521;50.160;20.802;2024-02-21T03:02:34;100265.27;;;3.82;82.69
59315;BME280;46521;50.160;20.802;2024-02-21T03:12:36;100265.27;;;3.82;82.86
59315;BME280;46521;50.160;20.802;2024-02-21T03:22:39;100257.53;;;3.80;82.95
59315;BME280;46521;50.160;20.802;2024-02-21T03:32:43;100251.58;;;3.78;83.56
59315;BME280;46521;50.160;20.802;2024-02-21T03:42:44;100242.16;;;3.75;83.89
59315;BME280;46521;50.160;20.802;2024-02-21T03:52:46;100248.44;;;3.73;84.36
59315;BME280;46521;50.160;20.802;2024-02-21T04:02:48;100260.70;;;3.72;84.86
59315;BME280;46521;50.160;20.802;2024-02-21T04:12:50;100259.66;;;3.75;84.79
59315;BME280;46521;50.160;20.802;2024-02-21T04:22:51;100253.13;;;3.81;84.68
59315;BME280;46521;50.160;20.802;2024-02-21T04:32:53;100247.45;;;3.87;84.71
59315;BME280;46521;50.160;20.802;2024-02-21T04:42:54;100244.13;;;3.85;84.72
59315;BME280;46521;50.160;20.802;2024-02-21T04:52:56;100234.59;;;3.84;84.47
59315;BME280;46521;50.160;20.802;2024-02-21T05:02:57;100236.05;;;3.88;84.86
59315;BME280;46521;50.160;20.802;2024-02-21T05:12:59;100229.03;;;3.88;84.81
59315;BME280;46521;50.160;20.802;2024-02-21T05:23:00;100234.48;;;3.85;84.61
59315;BME280;46521;50.160;20.802;2024-02-21T05:33:05;100228.42;;;3.85;84.76
59315;BME280;46521;50.160;20.802;2024-02-21T05:43:08;100233.66;;;3.85;84.32
59315;BME280;46521;50.160;20.802;2024-02-21T05:53:09;100233.66;;;3.85;85.09
59315;BME280;46521;50.160;20.802;2024-02-21T06:03:12;100226.41;;;3.88;85.16
59315;BME280;46521;50.160;20.802;2024-02-21T06:13:13;100228.59;;;3.94;85.05
59315;BME280;46521;50.160;20.802;2024-02-21T06:23:16;100227.77;;;3.94;85.06
59315;BME280;46521;50.160;20.802;2024-02-21T06:33:18;100221.59;;;3.95;85.66
59315;BME280;46521;50.160;20.802;2024-02-21T06:43:20;100216.47;;;3.93;85.65
59315;BME280;46521;50.160;20.802;2024-02-21T06:53:22;100222.53;;;3.94;85.57
59315;BME280;46521;50.160;20.802;2024-02-21T07:03:23;100218.16;;;4.06;86.14
59315;BME280;46521;50.160;20.802;2024-02-21T07:13:25;100221.94;;;4.26;85.85
59315;BME280;46521;50.160;20.802;2024-02-21T07:23:27;100211.78;;;4.45;85.78
59315;BME280;46521;50.160;20.802;2024-02-21T07:33:28;100205.66;;;5.03;86.15
59315;BME280;46521;50.160;20.802;2024-02-21T07:43:31;100209.95;;;5.38;85.56
59315;BME280;46521;50.160;20.802;2024-02-21T07:53:33;100203.27;;;5.56;84.99
59315;BME280;46521;50.160;20.802;2024-02-21T08:03:34;100201.31;;;5.70;85.16
59315;BME280;46521;50.160;20.802;2024-02-21T08:13:36;100192.95;;;5.76;84.49
59315;BME280;46521;50.160;20.802;2024-02-21T08:23:37;100169.26;;;5.99;84.33
59315;BME280;46521;50.160;20.802;2024-02-21T08:33:39;100156.23;;;6.51;83.82
59315;BME280;46521;50.160;20.802;2024-02-21T08:43:40;100162.58;;;7.10;84.10
59315;BME280;46521;50.160;20.802;2024-02-21T08:53:43;100163.77;;;7.36;82.16
59315;BME280;46521;50.160;20.802;2024-02-21T09:03:44;100147.70;;;7.30;82.38
59315;BME280;46521;50.160;20.802;2024-02-21T09:13:47;100142.18;;;7.43;81.39
59315;BME280;46521;50.160;20.802;2024-02-21T09:23:49;100135.04;;;7.84;81.26
59315;BME280;46521;50.160;20.802;2024-02-21T09:33:50;100126.44;;;8.01;81.01
59315;BME280;46521;50.160;20.802;2024-02-21T09:43:52;100138.63;;;7.83;80.53
59315;BME280;46521;50.160;20.802;2024-02-21T09:53:57;100137.80;;;7.92;79.74
59315;BME280;46521;50.160;20.802;2024-02-21T10:03:59;100135.02;;;8.23;79.10
59315;BME280;46521;50.160;20.802;2024-02-21T10:14:05;100129.41;;;8.55;78.58
59315;BME280;46521;50.160;20.802;2024-02-21T10:24:06;100119.26;;;8.60;78.79
59315;BME280;46521;50.160;20.802;2024-02-21T10:34:08;100106.11;;;8.51;78.47
59315;BME280;46521;50.160;20.802;2024-02-21T10:44:11;100099.20;;;8.50;77.92
59315;BME280;46521;50.160;20.802;2024-02-21T10:54:23;100075.77;;;8.46;78.04
59315;BME280;46521;50.160;20.802;2024-02-21T11:04:31;100055.84;;;8.62;77.89
59315;BME280;46521;50.160;20.802;2024-02-21T11:14:38;100048.88;;;9.16;77.38
59315;BME280;46521;50.160;20.802;2024-02-21T11:24:40;100021.36;;;9.37;76.20
59315;BME280;46521;50.160;20.802;2024-02-21T11:35:01;100015.72;;;9.32;75.98
59315;BME280;46521;50.160;20.802;2024-02-21T11:45:06;100002.28;;;9.43;74.29
59315;BME280;46521;50.160;20.802;2024-02-21T11:55:07;99988.17;;;9.52;74.96
59315;BME280;46521;50.160;20.802;2024-02-21T12:05:09;99978.30;;;9.81;75.15
59315;BME280;46521;50.160;20.802;2024-02-21T12:15:11;99974.93;;;9.97;73.25
59315;BME280;46521;50.160;20.802;2024-02-21T12:25:19;99978.84;;;9.84;73.18
59315;BME280;46521;50.160;20.802;2024-02-21T12:35:27;99967.63;;;9.90;73.71
59315;BME280;46521;50.160;20.802;2024-02-21T12:45:28;99965.14;;;9.89;72.13
59315;BME280;46521;50.160;20.802;2024-02-21T12:55:30;99946.45;;;9.82;72.56
59315;BME280;46521;50.160;20.802;2024-02-21T13:05:31;99940.00;;;9.77;72.29
59315;BME280;46521;50.160;20.802;2024-02-21T13:15:33;99933.70;;;9.78;72.14
59315;BME280;46521;50.160;20.802;2024-02-21T13:25:35;99928.27;;;9.79;72.05
59315;BME280;46521;50.160;20.802;2024-02-21T13:35:37;99901.47;;;9.66;72.44
59315;BME280;46521;50.160;20.802;2024-02-21T13:45:40;99894.52;;;9.65;71.59
59315;BME280;46521;50.160;20.802;2024-02-21T13:55:44;99892.45;;;9.50;71.18
59315;BME280;46521;50.160;20.802;2024-02-21T14:05:46;99875.77;;;9.24;70.76
59315;BME280;46521;50.160;20.802;2024-02-21T14:15:49;99866.23;;;9.05;70.80
59315;BME280;46521;50.160;20.802;2024-02-21T14:25:51;99862.39;;;8.99;71.39
59315;BME280;46521;50.160;20.802;2024-02-21T14:35:52;99852.17;;;8.78;71.70
59315;BME280;46521;50.160;20.802;2024-02-21T14:45:54;99845.22;;;8.59;71.65
59315;BME280;46521;50.160;20.802;2024-02-21T14:55:56;99843.10;;;8.44;71.88
59315;BME280;46521;50.160;20.802;2024-02-21T15:05:58;99842.63;;;8.31;72.10
59315;BME280;46521;50.160;20.802;2024-02-21T15:16:00;99839.20;;;8.21;72.45
59315;BME280;46521;50.160;20.802;2024-02-21T15:26:01;99826.92;;;8.11;72.64
59315;BME280;46521;50.160;20.802;2024-02-21T15:36:03;99832.92;;;8.04;72.97
59315;BME280;46521;50.160;20.802;2024-02-21T15:46:05;99829.00;;;7.90;72.15
59315;BME280;46521;50.160;20.802;2024-02-21T15:56:07;99820.07;;;7.73;73.09
59315;BME280;46521;50.160;20.802;2024-02-21T16:06:08;99818.34;;;7.54;73.24
59315;BME280;46521;50.160;20.802;2024-02-21T16:16:10;99829.59;;;7.36;73.31
59315;BME280;46521;50.160;20.802;2024-02-21T16:26:11;99820.10;;;7.16;73.71
59315;BME280;46521;50.160;20.802;2024-02-21T16:36:23;99823.45;;;6.98;73.72
59315;BME280;46521;50.160;20.802;2024-02-21T16:46:25;99818.22;;;6.89;73.10
59315;BME280;46521;50.160;20.802;2024-02-21T16:56:27;99799.13;;;6.77;73.40
59315;BME280;46521;50.160;20.802;2024-02-21T17:06:28;99798.98;;;6.78;73.61
59315;BME280;46521;50.160;20.802;2024-02-21T17:16:29;99795.53;;;6.78;73.71
59315;BME280;46521;50.160;20.802;2024-02-21T17:26:31;99772.02;;;6.76;73.62
59315;BME280;46521;50.160;20.802;2024-02-21T17:36:33;99783.63;;;6.74;73.72
59315;BME280;46521;50.160;20.802;2024-02-21T17:46:35;99777.02;;;6.70;73.81
59315;BME280;46521;50.160;20.802;2024-02-21T17:56:43;99765.79;;;6.67;73.35
59315;BME280;46521;50.160;20.802;2024-02-21T18:06:44;99755.02;;;6.61;73.45
59315;BME280;46521;50.160;20.802;2024-02-21T18:16:46;99744.92;;;6.56;74.44
59315;BME280;46521;50.160;20.802;2024-02-21T18:26:47;99731.26;;;6.43;73.95
59315;BME280;46521;50.160;20.802;2024-02-21T18:36:49;99733.46;;;6.28;74.10
59315;BME280;46521;50.160;20.802;2024-02-21T18:46:51;99721.84;;;6.11;73.71
59315;BME280;46521;50.160;20.802;2024-02-21T18:56:52;99720.86;;;5.92;73.62
59315;BME280;46521;50.160;20.802;2024-02-21T19:06:54;99711.58;;;5.78;73.66
59315;BME280;46521;50.160;20.802;2024-02-21T19:16:57;99694.02;;;5.69;73.76
59315;BME280;46521;50.160;20.802;2024-02-21T19:26:58;99692.61;;;5.65;74.08
59315;BME280;46521;50.160;20.802;2024-02-21T19:37:00;99681.57;;;5.62;73.93
59315;BME280;46521;50.160;20.802;2024-02-21T19:47:02;99666.91;;;5.59;73.44
59315;BME280;46521;50.160;20.802;2024-02-21T19:57:05;99659.72;;;5.51;73.63
59315;BME280;46521;50.160;20.802;2024-02-21T20:07:06;99660.97;;;5.47;73.92
59315;BME280;46521;50.160;20.802;2024-02-21T20:17:08;99655.81;;;5.36;74.23
59315;BME280;46521;50.160;20.802;2024-02-21T20:27:10;99640.62;;;5.30;73.94
59315;BME280;46521;50.160;20.802;2024-02-21T20:37:14;99640.97;;;5.05;73.88
59315;BME280;46521;50.160;20.802;2024-02-21T20:47:15;99640.78;;;4.87;74.10
59315;BME280;46521;50.160;20.802;2024-02-21T20:57:19;99645.14;;;4.77;74.03
59315;BME280;46521;50.160;20.802;2024-02-21T21:07:20;99634.62;;;4.67;74.34
59315;BME280;46521;50.160;20.802;2024-02-21T21:17:22;99623.64;;;4.53;74.27
59315;BME280;46521;50.160;20.802;2024-02-21T21:27:24;99607.63;;;4.46;74.41
59315;BME280;46521;50.160;20.802;2024-02-21T21:37:27;99602.64;;;4.43;74.66
59315;BME280;46521;50.160;20.802;2024-02-21T21:47:30;99597.66;;;4.40;74.50
59315;BME280;46521;50.160;20.802;2024-02-21T21:57:32;99593.33;;;4.29;74.78
59315;BME280;46521;50.160;20.802;2024-02-21T22:07:33;99588.61;;;4.23;74.37
59315;BME280;46521;50.160;20.802;2024-02-21T22:17:35;99574.01;;;4.20;74.74
59315;BME280;46521;50.160;20.802;2024-02-21T22:27:36;99563.66;;;4.19;74.68
59315;BME280;46521;50.160;20.802;2024-02-21T22:37:38;99564.05;;;4.14;75.01
59315;BME280;46521;50.160;20.802;2024-02-21T22:47:39;99548.14;;;4.06;74.67
59315;BME280;46521;50.160;20.802;2024-02-21T22:57:41;99541.65;;;4.00;75.18
59315;BME280;46521;50.160;20.802;2024-02-21T23:07:44;99519.30;;;3.96;75.06
59315;BME280;46521;50.160;20.802;2024-02-21T23:17:50;99488.42;;;3.90;75.00
59315;BME280;46521;50.160;20.802;2024-02-21T23:27:51;99453.02;;;3.86;75.13
59315;BME280;46521;50.160;20.802;2024-02-21T23:37:54;99455.13;;;3.92;75.63
59315;BME280;46521;50.160;20.802;2024-02-21T23:47:56;99442.73;;;3.94;75.42
59315;BME280;46521;50.160;20.802;2024-02-21T23:57:57;99427.03;;;3.94;75.50
